Time;durP1;ratioP1;P1;durP2;ratioP2;P2;SDS_P1;SDS_P2;PMS_P1;PMS_P2;Temp;Humidity;BMP_temperature;BMP_pressure;BME280_temperature;BME280_humidity;BME280_pressure;Samples;Min_cycle;Max_cycle;Signal;HPM_P1;HPM_P2
2023/06/17 00:01:06;;;;;;;6.13;4.90;;;13.90;99.90;;;;;;5059600;28;20043;-30
2023/06/17 00:03:31;;;;;;;8.95;5.03;;;13.90;99.90;;;;;;5061792;28;20037;-30
2023/06/17 00:05:57;;;;;;;6.55;5.20;;;13.70;99.90;;;;;;5059654;28;20029;-31
2023/06/17 00:08:25;;;;;;;6.25;4.55;;;13.30;99.90;;;;;;5067413;28;20470;-30
2023/06/17 00:10:51;;;;;;;;;;;12.90;99.90;;;;;;5061550;28;20043;-29
2023/06/17 00:13:19;;;;;;;5.05;4.50;;;12.80;99.90;;;;;;5094078;28;20359;-29
2023/06/17 00:15:56;;;;;;;6.45;4.88;;;12.90;99.90;;;;;;5065194;28;20056;-29
2023/06/17 00:18:24;;;;;;;5.45;4.82;;;13.10;99.90;;;;;;5057705;28;20031;-31
2023/06/17 00:20:52;;;;;;;5.68;4.65;;;13.20;99.90;;;;;;5060466;28;20100;-32
2023/06/17 00:23:21;;;;;;;7.15;5.00;;;13.00;99.90;;;;;;5059180;28;20391;-32
2023/06/17 00:25:48;;;;;;;8.82;5.25;;;12.70;99.90;;;;;;5059589;28;20067;-31
2023/06/17 00:28:13;;;;;;;5.07;4.57;;;12.70;99.90;;;;;;5059865;28;20036;-32
2023/06/17 00:30:39;;;;;;;6.22;4.95;;;12.50;99.90;;;;;;5058803;28;20403;-32
2023/06/17 00:33:05;;;;;;;5.22;4.35;;;12.50;99.90;;;;;;5071799;28;20047;-31
2023/06/17 00:35:30;;;;;;;6.28;4.45;;;12.60;99.90;;;;;;5056841;28;20087;-33
2023/06/17 00:37:56;;;;;;;7.10;4.40;;;12.70;99.90;;;;;;5056035;28;20043;-34
2023/06/17 00:40:21;;;;;;;5.78;4.53;;;12.80;99.90;;;;;;5056699;28;20444;-33
2023/06/17 00:42:47;;;;;;;6.45;4.82;;;12.90;99.90;;;;;;5062476;28;20086;-32
2023/06/17 00:45:13;;;;;;;5.55;4.38;;;12.90;99.90;;;;;;5057989;28;20504;-33
2023/06/17 00:47:39;;;;;;;5.18;4.35;;;12.90;99.90;;;;;;5057118;28;20460;-33
2023/06/17 00:50:09;;;;;;;7.90;4.60;;;13.00;99.90;;;;;;5058045;28;20033;-38
2023/06/17 00:52:36;;;;;;;5.63;4.22;;;12.90;99.90;;;;;;5057993;28;20427;-40
2023/06/17 00:55:02;;;;;;;7.57;4.63;;;12.80;99.90;;;;;;5075882;28;20531;-38
2023/06/17 00:57:28;;;;;;;6.05;4.53;;;12.50;99.90;;;;;;5062089;28;20025;-39
2023/06/17 00:59:54;;;;;;;6.03;4.80;;;12.20;99.90;;;;;;5062265;28;20113;-39
2023/06/17 01:02:25;;;;;;;7.22;5.03;;;12.00;99.90;;;;;;5062492;28;20033;-33
2023/06/17 01:04:52;;;;;;;6.00;4.95;;;11.90;99.90;;;;;;5065295;28;20839;-32
2023/06/17 01:07:40;;;;;;;6.57;5.22;;;11.70;99.90;;;;;;5065271;28;20040;-33
2023/06/17 01:10:16;;;;;;;8.32;4.70;;;11.70;99.90;;;;;;5062014;28;20557;-32
2023/06/17 01:12:44;;;;;;;6.15;4.65;;;11.70;99.90;;;;;;5057025;28;20094;-32
2023/06/17 01:15:13;;;;;;;6.03;4.77;;;11.70;99.90;;;;;;5063394;28;20473;-31
2023/06/17 01:17:45;;;;;;;5.00;4.50;;;11.70;99.90;;;;;;5058157;28;20031;-33
2023/06/17 01:20:13;;;;;;;5.32;4.50;;;11.90;99.90;;;;;;5058390;28;20619;-32
2023/06/17 01:22:39;;;;;;;5.45;4.53;;;12.00;99.90;;;;;;5059282;28;20149;-34
2023/06/17 01:25:06;;;;;;;7.65;4.50;;;12.10;99.90;;;;;;5055734;28;20043;-32
2023/06/17 01:27:33;;;;;;;6.18;4.78;;;12.10;99.90;;;;;;5061703;28;20025;-34
2023/06/17 01:29:59;;;;;;;6.85;4.70;;;12.00;99.90;;;;;;5057418;28;20029;-37
2023/06/17 01:32:25;;;;;;;6.45;4.75;;;12.00;99.90;;;;;;5053553;28;20095;-33
2023/06/17 01:35:05;;;;;;;5.35;4.50;;;11.90;99.90;;;;;;5062435;28;20065;-32
2023/06/17 01:37:43;;;;;;;5.15;4.10;;;11.90;99.90;;;;;;5060525;28;20028;-32
2023/06/17 01:40:13;;;;;;;6.10;4.60;;;11.80;99.90;;;;;;5063745;28;20035;-30
2023/06/17 01:42:43;;;;;;;5.45;4.22;;;11.80;99.90;;;;;;5066735;28;20422;-31
2023/06/17 01:45:10;;;;;;;5.80;4.57;;;11.70;99.90;;;;;;5055893;28;20032;-31
2023/06/17 01:47:35;;;;;;;5.05;4.28;;;11.60;99.90;;;;;;5061047;28;20934;-32
2023/06/17 01:50:03;;;;;;;7.10;4.55;;;11.60;99.90;;;;;;5067793;28;20119;-31
2023/06/17 01:52:29;;;;;;;6.90;5.05;;;11.50;99.90;;;;;;5067048;28;20118;-34
2023/06/17 01:54:55;;;;;;;6.63;4.97;;;11.50;99.90;;;;;;5066891;28;20596;-31
2023/06/17 01:57:21;;;;;;;5.40;4.90;;;11.40;99.90;;;;;;5059686;28;20661;-31
2023/06/17 01:59:47;;;;;;;6.82;5.03;;;11.20;99.90;;;;;;5064504;28;20032;-32
2023/06/17 02:02:12;;;;;;;5.72;4.93;;;11.20;99.90;;;;;;5063394;28;20032;-31
2023/06/17 02:04:38;;;;;;;6.65;4.95;;;11.20;99.90;;;;;;5061161;28;20132;-31
2023/06/17 02:07:04;;;;;;;6.72;4.90;;;11.20;99.90;;;;;;5061177;28;20047;-32
2023/06/17 02:09:33;;;;;;;5.38;4.63;;;11.30;99.90;;;;;;5064874;28;20035;-29
2023/06/17 02:11:58;;;;;;;4.75;4.28;;;11.30;99.90;;;;;;5068725;28;20051;-32
2023/06/17 02:14:24;;;;;;;8.43;4.80;;;11.30;99.90;;;;;;5065941;28;20025;-29
2023/06/17 02:16:52;;;;;;;7.45;5.18;;;11.40;99.90;;;;;;5064848;28;20021;-29
2023/06/17 02:19:42;;;;;;;6.10;5.25;;;11.40;99.90;;;;;;5065431;28;20032;-29
2023/06/17 02:22:08;;;;;;;6.80;4.75;;;11.50;99.90;;;;;;5060406;28;20032;-29
2023/06/17 02:24:34;;;;;;;6.85;4.97;;;11.60;99.90;;;;;;5062496;28;20406;-31
2023/06/17 02:27:01;;;;;;;5.38;4.20;;;11.60;99.90;;;;;;5067444;28;20473;-29
2023/06/17 02:29:26;;;;;;;5.18;4.57;;;11.60;99.90;;;;;;5063809;28;20112;-29
2023/06/17 02:31:52;;;;;;;4.47;4.05;;;11.60;99.90;;;;;;5066275;28;20171;-34
2023/06/17 02:34:19;;;;;;;6.20;4.55;;;11.70;99.90;;;;;;5060462;28;20496;-36
2023/06/17 02:36:48;;;;;;;6.97;4.10;;;11.70;99.90;;;;;;5065660;28;20017;-29
2023/06/17 02:39:14;;;;;;;5.65;4.43;;;11.70;99.90;;;;;;5067634;28;20037;-29
2023/06/17 02:41:41;;;;;;;7.60;4.68;;;11.70;99.90;;;;;;5067717;28;20029;-33
2023/06/17 02:44:07;;;;;;;6.85;4.60;;;11.70;99.90;;;;;;5063302;28;20116;-30
2023/06/17 02:46:32;;;;;;;5.75;4.88;;;11.60;99.90;;;;;;5060220;28;20148;-29
2023/06/17 02:48:58;;;;;;;5.65;4.68;;;11.50;99.90;;;;;;5059785;28;20467;-30
2023/06/17 02:51:24;;;;;;;6.15;4.68;;;11.30;99.90;;;;;;5057935;28;20041;-30
2023/06/17 02:53:50;;;;;;;7.65;5.10;;;11.20;99.90;;;;;;5060302;28;20504;-29
2023/06/17 02:56:16;;;;;;;6.38;4.68;;;11.00;99.90;;;;;;5065459;28;20598;-29
2023/06/17 02:58:43;;;;;;;5.32;4.82;;;10.80;99.90;;;;;;5060342;28;20021;-30
2023/06/17 03:01:11;;;;;;;7.00;4.70;;;10.80;99.90;;;;;;5059328;28;20052;-29
2023/06/17 03:03:41;;;;;;;8.30;5.15;;;10.90;99.90;;;;;;5064249;28;20139;-29
2023/06/17 03:06:08;;;;;;;6.53;5.07;;;11.00;99.90;;;;;;5050751;28;20033;-29
2023/06/17 03:08:36;;;;;;;6.40;5.30;;;11.10;99.90;;;;;;5061543;28;20032;-29
2023/06/17 03:11:02;;;;;;;7.20;5.38;;;11.10;99.90;;;;;;5055932;28;20082;-29
2023/06/17 03:13:28;;;;;;;7.43;5.38;;;11.20;99.90;;;;;;5059653;28;20442;-29
2023/06/17 03:15:59;;;;;;;4.57;4.03;;;11.10;99.90;;;;;;5063874;28;20035;-29
2023/06/17 03:18:25;;;;;;;6.60;4.78;;;11.10;99.90;;;;;;5059380;28;20071;-31
2023/06/17 03:20:54;;;;;;;5.50;4.90;;;11.10;99.90;;;;;;5059582;28;20016;-39
2023/06/17 03:23:21;;;;;;;6.22;4.72;;;11.10;99.90;;;;;;5060795;28;20417;-39
2023/06/17 03:25:51;;;;;;;5.13;4.57;;;11.10;99.90;;;;;;5062867;28;20021;-39
2023/06/17 03:28:17;;;;;;;6.20;4.45;;;11.10;99.90;;;;;;5065841;28;20664;-39
2023/06/17 03:30:44;;;;;;;7.40;4.90;;;11.10;99.90;;;;;;5065093;28;20039;-38
2023/06/17 03:33:12;;;;;;;5.38;4.75;;;11.10;99.90;;;;;;5065421;28;20059;-36
2023/06/17 03:35:37;;;;;;;5.35;4.32;;;11.00;99.90;;;;;;5064671;28;20035;-34
2023/06/17 03:38:03;;;;;;;5.55;4.80;;;11.10;99.90;;;;;;5063930;28;20029;-39
2023/06/17 03:40:28;;;;;;;8.07;4.82;;;11.10;99.90;;;;;;5062302;28;20390;-39
2023/06/17 03:42:54;;;;;;;6.45;4.38;;;11.20;99.90;;;;;;5060500;28;20108;-39
2023/06/17 03:45:21;;;;;;;5.40;4.60;;;11.30;99.90;;;;;;5062144;28;20474;-38
2023/06/17 03:47:46;;;;;;;5.07;4.57;;;11.30;99.90;;;;;;5057207;28;20401;-39
2023/06/17 03:50:13;;;;;;;5.32;4.70;;;11.30;99.90;;;;;;5064649;28;20099;-39
2023/06/17 03:52:38;;;;;;;5.43;4.80;;;11.30;99.90;;;;;;5058791;28;20434;-39
2023/06/17 03:55:04;;;;;;;6.30;4.90;;;11.40;99.90;;;;;;5058483;28;20025;-39
2023/06/17 03:57:30;;;;;;;5.53;4.70;;;11.40;99.90;;;;;;5059901;28;20029;-37
2023/06/17 03:59:55;;;;;;;6.82;4.82;;;11.30;99.90;;;;;;5058766;28;20040;-41
2023/06/17 04:02:21;;;;;;;6.57;5.43;;;11.30;99.90;;;;;;5055285;28;20039;-39
2023/06/17 04:04:47;;;;;;;8.13;5.03;;;11.40;99.90;;;;;;5062048;28;20048;-39
2023/06/17 04:07:12;;;;;;;5.50;4.45;;;11.40;99.90;;;;;;5089706;28;20024;-39
2023/06/17 04:09:38;;;;;;;6.03;4.65;;;11.40;99.90;;;;;;5059648;28;20028;-37
2023/06/17 04:12:04;;;;;;;5.10;4.60;;;11.40;99.90;;;;;;5059894;28;20057;-39
2023/06/17 04:14:29;;;;;;;4.97;4.47;;;11.40;99.90;;;;;;5057883;28;20091;-38
2023/06/17 04:16:56;;;;;;;5.50;4.95;;;11.50;99.90;;;;;;5065219;28;20029;-38
2023/06/17 04:19:23;;;;;;;5.85;4.55;;;11.50;99.90;;;;;;5058312;28;20064;-37
2023/06/17 04:21:49;;;;;;;5.93;4.60;;;11.60;99.90;;;;;;5057462;28;20475;-38
2023/06/17 04:24:15;;;;;;;4.70;4.30;;;11.60;99.90;;;;;;5054928;28;20021;-39
2023/06/17 04:26:44;;;;;;;6.35;5.38;;;11.70;99.90;;;;;;5062606;28;20029;-38
2023/06/17 04:29:11;;;;;;;7.60;5.55;;;11.80;99.90;;;;;;5054393;28;20100;-39
2023/06/17 04:31:40;;;;;;;7.43;5.45;;;11.80;99.90;;;;;;5066038;28;20141;-40
2023/06/17 04:34:05;;;;;;;6.00;5.00;;;11.80;99.90;;;;;;5064079;28;20174;-37
2023/06/17 04:36:32;;;;;;;6.10;5.07;;;11.80;99.90;;;;;;5055499;28;20156;-39
2023/06/17 04:38:58;;;;;;;8.15;5.57;;;11.80;99.90;;;;;;5068610;28;20029;-38
2023/06/17 04:41:26;;;;;;;9.38;5.78;;;11.90;99.90;;;;;;5065655;28;20025;-39
2023/06/17 04:43:53;;;;;;;7.50;5.60;;;12.00;99.90;;;;;;5065357;28;20046;-39
2023/06/17 04:46:20;;;;;;;7.80;5.57;;;12.10;99.90;;;;;;5063038;28;20032;-39
2023/06/17 04:48:46;;;;;;;7.95;5.72;;;12.20;99.90;;;;;;5060378;28;20036;-38
2023/06/17 04:51:12;;;;;;;10.70;5.60;;;12.10;99.90;;;;;;5064748;28;20037;-35
2023/06/17 04:53:38;;;;;;;7.00;5.70;;;12.00;99.90;;;;;;5062744;28;20036;-39
2023/06/17 04:56:06;;;;;;;7.30;5.85;;;12.00;99.90;;;;;;5056397;28;20033;-37
2023/06/17 04:58:32;;;;;;;9.70;5.93;;;12.10;99.90;;;;;;5067249;28;20765;-39
2023/06/17 05:00:58;;;;;;;6.20;5.47;;;12.10;99.90;;;;;;5065120;28;20115;-39
2023/06/17 05:03:24;;;;;;;6.22;5.50;;;12.20;99.90;;;;;;5067366;28;20162;-37
2023/06/17 05:05:50;;;;;;;6.22;5.63;;;12.30;99.90;;;;;;5065449;28;20525;-37
2023/06/17 05:08:15;;;;;;;6.28;5.30;;;12.50;99.90;;;;;;5065394;28;20038;-38
2023/06/17 05:10:41;;;;;;;8.45;5.93;;;12.80;99.90;;;;;;5068637;28;20111;-39
2023/06/17 05:13:07;;;;;;;6.68;5.80;;;12.70;99.90;;;;;;5065511;28;20087;-40
2023/06/17 05:15:32;;;;;;;6.63;5.53;;;12.80;99.90;;;;;;5067201;28;20020;-39
2023/06/17 05:17:58;;;;;;;7.30;5.60;;;12.90;99.90;;;;;;5066896;28;20033;-39
2023/06/17 05:20:23;;;;;;;7.85;5.65;;;12.90;99.90;;;;;;5062455;28;20029;-39
2023/06/17 05:22:49;;;;;;;7.70;5.63;;;13.10;99.90;;;;;;5060748;28;20052;-40
2023/06/17 05:25:15;;;;;;;9.43;5.88;;;13.50;99.90;;;;;;5064650;28;20036;-39
2023/06/17 05:27:40;;;;;;;7.97;6.32;;;13.70;99.90;;;;;;5061156;28;20036;-38
2023/06/17 05:30:06;;;;;;;9.25;6.35;;;13.90;99.90;;;;;;5061144;28;20052;-40
2023/06/17 05:32:32;;;;;;;7.22;6.00;;;14.20;99.90;;;;;;5060289;28;20840;-40
2023/06/17 05:34:57;;;;;;;7.65;6.00;;;14.40;99.90;;;;;;5062593;28;20029;-40
2023/06/17 05:37:23;;;;;;;11.00;6.25;;;14.50;99.90;;;;;;5062908;28;20032;-40
2023/06/17 05:39:49;;;;;;;7.20;5.90;;;14.70;99.90;;;;;;5059068;28;20101;-34
2023/06/17 05:42:14;;;;;;;8.30;6.00;;;14.80;99.90;;;;;;5060049;28;20129;-32
2023/06/17 05:44:40;;;;;;;7.07;5.80;;;15.00;99.90;;;;;;5062158;28;20029;-33
2023/06/17 05:47:06;;;;;;;8.77;6.63;;;15.10;99.90;;;;;;5061195;28;20521;-37
2023/06/17 05:49:31;;;;;;;6.90;5.43;;;15.30;99.90;;;;;;5065378;28;20116;-33
2023/06/17 05:51:57;;;;;;;8.38;6.20;;;15.40;99.90;;;;;;5061521;28;20127;-31
2023/06/17 05:54:22;;;;;;;7.35;5.93;;;15.60;99.90;;;;;;5059454;28;20029;-33
2023/06/17 05:56:49;;;;;;;8.15;6.72;;;15.60;99.90;;;;;;5065824;28;20463;-35
2023/06/17 05:59:15;;;;;;;8.93;6.20;;;15.60;99.90;;;;;;5063937;28;20482;-33
2023/06/17 06:01:40;;;;;;;7.97;6.05;;;15.80;99.90;;;;;;5060326;28;20032;-32
2023/06/17 06:04:06;;;;;;;7.97;6.03;;;16.00;99.90;;;;;;5065215;28;20549;-35
2023/06/17 06:06:32;;;;;;;7.18;6.35;;;16.00;99.90;;;;;;5063147;28;20545;-32
2023/06/17 06:08:57;;;;;;;7.60;5.97;;;16.20;99.90;;;;;;5061023;28;20032;-32
2023/06/17 06:11:23;;;;;;;7.65;6.53;;;16.20;99.90;;;;;;5060671;28;20488;-33
2023/06/17 06:13:48;;;;;;;9.85;6.75;;;16.30;99.90;;;;;;5061588;28;20082;-32
2023/06/17 06:16:14;;;;;;;7.95;6.28;;;16.30;99.90;;;;;;5060983;28;20428;-33
2023/06/17 06:18:40;;;;;;;8.50;6.90;;;16.40;99.90;;;;;;5064745;28;20021;-31
2023/06/17 06:21:05;;;;;;;7.18;6.28;;;16.60;99.90;;;;;;5056754;28;20049;-34
2023/06/17 06:23:31;;;;;;;8.15;6.32;;;16.70;99.90;;;;;;5060730;28;20367;-35
2023/06/17 06:25:57;;;;;;;7.63;6.43;;;16.90;99.90;;;;;;5063902;28;20048;-33
2023/06/17 06:28:22;;;;;;;8.40;6.15;;;17.20;99.90;;;;;;5064918;28;20546;-32
2023/06/17 06:30:48;;;;;;;9.25;6.65;;;17.50;99.90;;;;;;5061286;28;20051;-34
2023/06/17 06:33:13;;;;;;;9.25;7.05;;;17.60;99.90;;;;;;5058893;28;20027;-34
2023/06/17 06:35:39;;;;;;;10.82;6.43;;;17.80;99.90;;;;;;5062497;28;20129;-33
2023/06/17 06:38:04;;;;;;;9.93;6.32;;;18.00;99.90;;;;;;5059108;28;20177;-33
2023/06/17 06:40:30;;;;;;;9.48;6.97;;;18.20;99.90;;;;;;5064262;28;20031;-35
2023/06/17 06:42:56;;;;;;;10.88;7.05;;;18.50;99.90;;;;;;5065746;28;20032;-33
2023/06/17 06:45:21;;;;;;;8.57;6.60;;;18.40;99.90;;;;;;5062505;28;20025;-32
2023/06/17 06:47:47;;;;;;;8.30;6.53;;;18.70;99.90;;;;;;5059097;28;20494;-31
2023/06/17 06:50:12;;;;;;;8.18;6.45;;;18.80;99.90;;;;;;5061023;28;20029;-41
2023/06/17 06:52:38;;;;;;;8.88;6.50;;;18.80;99.90;;;;;;5066991;28;20734;-39
2023/06/17 06:55:04;;;;;;;8.20;6.20;;;19.10;99.90;;;;;;5068787;28;20028;-41
2023/06/17 06:57:30;;;;;;;6.63;5.93;;;19.30;99.90;;;;;;5066510;28;20032;-42
2023/06/17 06:59:55;;;;;;;10.45;6.70;;;19.20;99.90;;;;;;5065162;28;20040;-41
2023/06/17 07:02:21;;;;;;;10.13;6.32;;;19.30;99.90;;;;;;5057380;28;20029;-38
2023/06/17 07:04:47;;;;;;;7.10;6.10;;;19.50;99.90;;;;;;5064139;28;20025;-41
2023/06/17 07:07:13;;;;;;;9.15;5.90;;;19.70;99.90;;;;;;5061776;28;20059;-41
2023/06/17 07:09:39;;;;;;;6.53;5.82;;;19.60;99.90;;;;;;5058406;28;20059;-43
2023/06/17 07:12:06;;;;;;;7.93;5.82;;;19.60;99.90;;;;;;5057224;28;20041;-41
2023/06/17 07:14:32;;;;;;;161.03;15.37;;;19.80;99.90;;;;;;5072925;28;20020;-40
2023/06/17 07:16:58;;;;;;;12.00;5.57;;;20.00;99.90;;;;;;5059513;28;20020;-42
2023/06/17 07:19:24;;;;;;;7.90;5.57;;;20.10;99.90;;;;;;5056132;28;20025;-43
2023/06/17 07:21:50;;;;;;;7.00;6.30;;;20.20;99.90;;;;;;5056632;28;20025;-36
2023/06/17 07:24:16;;;;;;;8.63;5.85;;;20.00;99.90;;;;;;5064907;28;20067;-41
2023/06/17 07:26:42;;;;;;;7.63;6.18;;;19.90;99.90;;;;;;5062239;28;20040;-41
2023/06/17 07:29:07;;;;;;;8.52;5.88;;;20.30;99.90;;;;;;5063308;28;20461;-36
2023/06/17 07:31:33;;;;;;;8.27;6.10;;;20.50;99.90;;;;;;5060097;28;20098;-40
2023/06/17 07:33:58;;;;;;;6.32;5.53;;;20.80;99.90;;;;;;5058681;28;20032;-33
2023/06/17 07:36:24;;;;;;;7.18;5.78;;;20.90;99.90;;;;;;5057863;28;20028;-34
2023/06/17 07:38:51;;;;;;;6.75;5.35;;;21.20;99.90;;;;;;5057626;28;20417;-32
2023/06/17 07:41:17;;;;;;;7.50;5.55;;;21.30;99.90;;;;;;5060123;28;20378;-31
2023/06/17 07:43:42;;;;;;;11.45;5.25;;;21.30;99.90;;;;;;5060845;28;20039;-35
2023/06/17 07:46:08;;;;;;;6.38;5.38;;;21.40;99.90;;;;;;5060457;28;20569;-33
2023/06/17 07:48:33;;;;;;;5.43;4.78;;;21.40;99.90;;;;;;5057074;28;20497;-34
2023/06/17 07:50:59;;;;;;;8.88;5.72;;;21.50;99.90;;;;;;5059188;28;20101;-32
2023/06/17 07:53:25;;;;;;;7.93;5.50;;;21.60;99.90;;;;;;5055628;28;20029;-33
2023/06/17 07:55:52;;;;;;;5.93;4.55;;;21.70;99.90;;;;;;5058295;28;20017;-32
2023/06/17 07:58:18;;;;;;;6.80;5.60;;;21.90;99.90;;;;;;5064556;28;20021;-33
2023/06/17 08:00:43;;;;;;;6.68;5.45;;;22.20;99.90;;;;;;5062431;28;20036;-33
2023/06/17 08:03:09;;;;;;;7.65;5.22;;;22.50;99.90;;;;;;5062484;28;20035;-34
2023/06/17 08:05:36;;;;;;;6.20;4.95;;;22.50;99.90;;;;;;5059257;28;20067;-31
2023/06/17 08:08:02;;;;;;;6.15;5.28;;;22.30;99.90;;;;;;5059058;28;20111;-31
2023/06/17 08:10:27;;;;;;;5.68;5.15;;;22.10;99.90;;;;;;5058620;28;20111;-33
2023/06/17 08:12:53;;;;;;;7.40;5.18;;;22.40;99.90;;;;;;5055136;28;20060;-36
2023/06/17 08:15:19;;;;;;;7.00;5.10;;;22.40;99.90;;;;;;5063366;28;20028;-39
2023/06/17 08:17:47;;;;;;;5.32;4.68;;;22.60;99.90;;;;;;5062378;28;20042;-31
2023/06/17 08:20:13;;;;;;;6.47;5.28;;;22.80;99.90;;;;;;5063223;28;20533;-33
2023/06/17 08:22:39;;;;;;;7.22;5.00;;;23.00;99.90;;;;;;5066671;28;20034;-32
2023/06/17 08:25:05;;;;;;;6.18;5.18;;;23.20;99.90;;;;;;5062965;28;20039;-33
2023/06/17 08:27:32;;;;;;;5.38;4.75;;;23.40;99.90;;;;;;5058841;28;20032;-33
2023/06/17 08:29:58;;;;;;;8.40;4.65;;;23.60;99.90;;;;;;5061250;28;20068;-32
2023/06/17 08:32:24;;;;;;;5.55;4.57;;;23.90;99.90;;;;;;5061871;28;20032;-32
2023/06/17 08:34:50;;;;;;;5.07;4.25;;;23.70;99.90;;;;;;5059763;28;20028;-32
2023/06/17 08:37:16;;;;;;;6.55;4.40;;;23.80;99.90;;;;;;5060593;28;20073;-34
2023/06/17 08:39:42;;;;;;;5.68;4.10;;;24.20;99.90;;;;;;5063273;28;20024;-36
2023/06/17 08:42:08;;;;;;;4.30;3.90;;;24.40;99.90;;;;;;5064355;28;20033;-35
2023/06/17 08:44:41;;;;;;;4.60;4.13;;;24.20;99.90;;;;;;5055907;28;20027;-32
2023/06/17 08:47:10;;;;;;;5.30;4.15;;;24.30;99.90;;;;;;5061661;28;20036;-31
2023/06/17 08:49:35;;;;;;;5.50;3.90;;;24.30;99.90;;;;;;5063508;28;20032;-32
2023/06/17 08:52:03;;;;;;;5.78;4.00;;;24.40;99.90;;;;;;5060280;28;20086;-32
2023/06/17 08:54:31;;;;;;;4.65;3.50;;;24.90;99.90;;;;;;5060334;28;20090;-32
2023/06/17 08:56:57;;;;;;;5.45;4.32;;;24.70;99.90;;;;;;5061084;28;20035;-33
2023/06/17 08:59:23;;;;;;;5.28;4.05;;;24.40;99.90;;;;;;5060301;28;20357;-32
2023/06/17 09:01:51;;;;;;;4.70;3.95;;;24.60;99.90;;;;;;5061434;28;20081;-32
2023/06/17 09:04:19;;;;;;;5.45;4.00;;;24.30;99.90;;;;;;5058569;28;20385;-36
2023/06/17 09:06:45;;;;;;;7.68;4.38;;;24.80;99.90;;;;;;5056662;28;20029;-33
2023/06/17 09:09:12;;;;;;;5.20;4.70;;;24.60;99.90;;;;;;5055996;28;20496;-33
2023/06/17 09:11:37;;;;;;;5.10;3.95;;;24.80;99.90;;;;;;5062556;28;20111;-31
2023/06/17 09:14:03;;;;;;;6.35;3.92;;;25.30;99.90;;;;;;5056832;28;20127;-30
2023/06/17 09:16:36;;;;;;;6.00;4.10;;;25.50;99.90;;;;;;5059362;28;20024;-31
2023/06/17 09:19:08;;;;;;;4.78;4.32;;;25.20;99.90;;;;;;5067364;28;20040;-31
2023/06/17 09:21:35;;;;;;;4.28;3.88;;;25.40;99.90;;;;;;5062001;28;20033;-33
2023/06/17 09:24:06;;;;;;;5.47;4.00;;;25.60;99.90;;;;;;5063416;28;20116;-31
2023/06/17 09:26:35;;;;;;;4.07;3.60;;;25.60;99.90;;;;;;5060986;28;20033;-32
2023/06/17 09:29:06;;;;;;;4.28;3.75;;;25.60;99.90;;;;;;5065063;28;20094;-32
2023/06/17 09:31:33;;;;;;;4.68;4.00;;;25.60;99.90;;;;;;5055626;28;20490;-31
2023/06/17 09:34:03;;;;;;;5.25;4.47;;;25.70;99.90;;;;;;5060598;28;20109;-31
2023/06/17 09:36:28;;;;;;;6.15;4.40;;;25.60;99.90;;;;;;5064384;28;20546;-33
2023/06/17 09:38:54;;;;;;;5.35;4.60;;;25.20;99.90;;;;;;5061546;28;20033;-31
2023/06/17 09:41:23;;;;;;;4.70;4.20;;;24.60;99.90;;;;;;5061733;28;20246;-32
2023/06/17 09:43:53;;;;;;;7.60;4.45;;;24.60;99.90;;;;;;5063814;28;20135;-31
2023/06/17 09:46:29;;;;;;;5.00;4.20;;;24.20;99.90;;;;;;5065556;28;20068;-31
2023/06/17 09:48:55;;;;;;;5.05;4.55;;;24.00;99.90;;;;;;5061701;28;20039;-30
2023/06/17 09:51:23;;;;;;;5.78;4.00;;;24.10;99.90;;;;;;5064228;28;20044;-31
2023/06/17 09:53:50;;;;;;;;;;;24.60;99.90;;;;;;5062423;28;20117;-31
2023/06/17 09:56:18;;;;;;;6.03;3.83;;;24.50;99.90;;;;;;5061251;28;19915;-34
2023/06/17 09:58:44;;;;;;;4.80;3.95;;;24.70;99.90;;;;;;5059747;28;20423;-30
2023/06/17 10:01:11;;;;;;;5.00;4.22;;;24.90;99.90;;;;;;5059050;28;20409;-32
2023/06/17 10:03:39;;;;;;;4.75;4.25;;;25.20;99.90;;;;;;5059028;28;20068;-32
2023/06/17 10:06:05;;;;;;;5.90;4.05;;;25.40;99.90;;;;;;5062295;28;20043;-29
2023/06/17 10:08:31;;;;;;;4.90;4.05;;;25.20;99.90;;;;;;5064015;28;20028;-30
2023/06/17 10:11:00;;;;;;;6.80;4.20;;;25.20;99.90;;;;;;5064027;28;20396;-29
2023/06/17 10:13:27;;;;;;;4.93;4.10;;;25.30;99.90;;;;;;5060349;28;20030;-34
2023/06/17 10:15:56;;;;;;;4.93;3.63;;;25.00;99.90;;;;;;5057864;28;20021;-34
2023/06/17 10:18:23;;;;;;;8.65;4.32;;;25.10;99.90;;;;;;5067223;28;20017;-38
2023/06/17 10:20:50;;;;;;;5.80;3.85;;;25.00;99.90;;;;;;5061885;28;20062;-40
2023/06/17 10:23:19;;;;;;;6.15;4.15;;;25.10;99.90;;;;;;5061125;28;20111;-38
2023/06/17 10:25:45;;;;;;;4.75;3.92;;;25.20;99.90;;;;;;5061099;28;20032;-39
2023/06/17 10:28:13;;;;;;;5.68;4.40;;;25.30;99.90;;;;;;5061402;28;20347;-38
2023/06/17 10:30:44;;;;;;;4.15;3.58;;;25.20;99.90;;;;;;5058961;28;20066;-39
2023/06/17 10:33:09;;;;;;;6.75;4.47;;;25.30;99.90;;;;;;5057998;28;20032;-40
2023/06/17 10:35:43;;;;;;;5.07;3.97;;;25.60;99.90;;;;;;5060158;28;20101;-39
2023/06/17 10:38:26;;;;;;;7.65;4.20;;;25.60;99.90;;;;;;5061270;28;20044;-40
2023/06/17 10:40:51;;;;;;;4.18;3.45;;;25.40;99.90;;;;;;5058710;28;20029;-42
2023/06/17 10:43:19;;;;;;;6.97;4.28;;;25.40;99.90;;;;;;5059653;28;20028;-41
2023/06/17 10:45:52;;;;;;;5.80;4.32;;;25.20;99.90;;;;;;5059449;28;20560;-39
2023/06/17 10:48:33;;;;;;;4.43;4.03;;;24.40;99.90;;;;;;5058298;28;20029;-41
2023/06/17 10:51:07;;;;;;;5.22;4.25;;;24.40;99.90;;;;;;5058394;28;20028;-41
2023/06/17 10:53:36;;;;;;;5.63;4.03;;;24.80;99.90;;;;;;5056781;28;20024;-39
2023/06/17 10:56:04;;;;;;;4.03;3.63;;;25.40;99.90;;;;;;5054870;28;20029;-42
2023/06/17 10:58:46;;;;;;;5.82;3.67;;;25.40;99.90;;;;;;5054134;28;20134;-38
2023/06/17 11:01:12;;;;;;;5.38;4.47;;;25.50;99.90;;;;;;5054975;28;20091;-38
2023/06/17 11:03:38;;;;;;;4.03;3.63;;;25.30;99.90;;;;;;5059059;28;20063;-40
2023/06/17 11:06:05;;;;;;;4.30;3.75;;;25.00;99.90;;;;;;5056364;28;20032;-42
2023/06/17 11:08:35;;;;;;;4.55;3.80;;;25.20;99.90;;;;;;5059567;28;20496;-39
2023/06/17 11:11:10;;;;;;;6.07;3.92;;;25.20;99.90;;;;;;5060141;28;20354;-38
2023/06/17 11:13:47;;;;;;;6.60;4.05;;;24.70;99.90;;;;;;5057629;28;20477;-41
2023/06/17 11:16:12;;;;;;;6.15;3.97;;;25.10;99.90;;;;;;5055685;28;20043;-36
2023/06/17 11:18:40;;;;;;;6.07;4.35;;;25.10;99.90;;;;;;5058125;28;20028;-41
2023/06/17 11:21:06;;;;;;;3.97;3.58;;;25.80;99.90;;;;;;5057028;28;20025;-39
2023/06/17 11:23:33;;;;;;;6.28;4.03;;;26.20;99.90;;;;;;5061645;28;20106;-39
2023/06/17 11:26:00;;;;;;;4.88;4.05;;;26.30;99.90;;;;;;5061547;28;20037;-40
2023/06/17 11:28:26;;;;;;;4.72;3.88;;;26.20;99.90;;;;;;5063828;28;20393;-32
2023/06/17 11:30:53;;;;;;;6.82;3.95;;;25.90;99.90;;;;;;5060609;28;20035;-33
2023/06/17 11:33:20;;;;;;;4.95;4.22;;;25.50;99.90;;;;;;5061017;28;20074;-31
2023/06/17 11:35:48;;;;;;;4.77;4.27;;;25.20;99.90;;;;;;5062197;28;20029;-35
2023/06/17 11:38:15;;;;;;;;;;;25.20;99.90;;;;;;5061599;28;20056;-31
2023/06/17 11:40:42;;;;;;;4.15;3.72;;;25.20;99.90;;;;;;5059273;28;21795;-33
2023/06/17 11:43:09;;;;;;;5.27;4.13;;;25.70;99.90;;;;;;5062339;28;20028;-32
2023/06/17 11:45:35;;;;;;;5.63;3.97;;;26.30;99.90;;;;;;5056897;28;20024;-35
2023/06/17 11:48:04;;;;;;;5.28;4.22;;;26.00;99.90;;;;;;5057057;28;20513;-32
2023/06/17 11:50:30;;;;;;;5.80;4.35;;;25.70;99.90;;;;;;5057243;28;20085;-32
2023/06/17 11:52:59;;;;;;;7.13;3.95;;;25.60;99.90;;;;;;5062698;28;20514;-34
2023/06/17 11:55:35;;;;;;;5.15;3.88;;;25.90;99.90;;;;;;5076951;28;20260;-32
2023/06/17 11:58:03;;;;;;;8.68;4.47;;;26.30;99.90;;;;;;5063060;28;20478;-31
2023/06/17 12:00:30;;;;;;;6.45;4.35;;;26.80;99.90;;;;;;5062119;28;20055;-32
2023/06/17 12:02:57;;;;;;;4.82;3.88;;;26.80;99.90;;;;;;5063282;28;20055;-35
2023/06/17 12:05:27;;;;;;;6.60;4.27;;;27.10;99.90;;;;;;5058899;28;20057;-32
2023/06/17 12:07:53;;;;;;;6.25;4.40;;;27.50;99.90;;;;;;5061913;28;20482;-32
2023/06/17 12:10:18;;;;;;;6.32;3.83;;;26.70;99.90;;;;;;5060753;28;20065;-29
2023/06/17 12:12:45;;;;;;;4.00;3.60;;;25.50;99.90;;;;;;5064149;28;20097;-30
2023/06/17 12:15:12;;;;;;;4.60;4.18;;;25.30;99.90;;;;;;5065496;28;20120;-32
2023/06/17 12:17:46;;;;;;;4.75;3.83;;;25.40;99.90;;;;;;5066495;28;20035;-31
2023/06/17 12:20:16;;;;;;;5.97;4.10;;;25.50;99.90;;;;;;5063773;28;20103;-29
2023/06/17 12:22:47;;;;;;;5.13;4.15;;;25.80;99.90;;;;;;5058567;28;20021;-30
2023/06/17 12:25:12;;;;;;;7.10;4.40;;;26.10;99.90;;;;;;5063848;28;20082;-30
2023/06/17 12:27:39;;;;;;;6.30;3.95;;;27.00;99.90;;;;;;5054836;28;20025;-30
2023/06/17 12:30:06;;;;;;;5.78;4.32;;;26.90;99.90;;;;;;5056832;28;20040;-31
2023/06/17 12:32:32;;;;;;;8.25;3.92;;;26.70;99.90;;;;;;5058774;28;20028;-33
2023/06/17 12:35:01;;;;;;;5.82;3.90;;;27.10;99.90;;;;;;5062087;28;20547;-30
2023/06/17 12:37:28;;;;;;;7.15;4.30;;;27.40;99.90;;;;;;5062815;28;20023;-31
2023/06/17 12:39:59;;;;;;;5.00;4.32;;;27.60;99.90;;;;;;5063652;28;20099;-33
2023/06/17 12:42:25;;;;;;;4.95;4.22;;;27.40;99.90;;;;;;5059267;28;20043;-33
2023/06/17 12:44:51;;;;;;;6.13;4.32;;;27.40;99.90;;;;;;5059555;28;20034;-31
2023/06/17 12:47:19;;;;;;;7.55;4.53;;;26.90;99.90;;;;;;5058702;28;20433;-31